Time;durP1;ratioP1;P1;durP2;ratioP2;P2;SDS_P1;SDS_P2;PMS_P1;PMS_P2;Temp;Humidity;BMP_temperature;BMP_pressure;BME280_temperature;BME280_humidity;BME280_pressure;Samples;Min_cycle;Max_cycle;Signal;HPM_P1;HPM_P2
2021/07/09 00:01:44;;;;;;;2.30;1.40;;;;;;;;;;5099997;22;20496;-83
2021/07/09 00:04:11;;;;;;;2.87;1.33;;;;;;;;;;5095889;28;20787;-85
2021/07/09 00:06:37;;;;;;;3.40;1.93;;;;;;;;;;5095420;28;20403;-82
2021/07/09 00:09:04;;;;;;;2.30;1.70;;;;;;;;;;5096472;28;20452;-83
2021/07/09 00:11:30;;;;;;;2.63;1.53;;;;;;;;;;5094051;28;20424;-83
2021/07/09 00:13:56;;;;;;;2.20;1.53;;;;;;;;;;5056831;28;20409;-84
2021/07/09 00:16:22;;;;;;;2.50;1.43;;;;;;;;;;5056132;28;20496;-84
2021/07/09 00:18:49;;;;;;;2.27;1.20;;;;;;;;;;5074200;28;20445;-83
2021/07/09 00:21:15;;;;;;;2.27;1.30;;;;;;;;;;5075272;28;20397;-84
2021/07/09 00:23:42;;;;;;;3.37;2.17;;;;;;;;;;5074241;28;20431;-85
2021/07/09 00:26:08;;;;;;;6.00;1.80;;;;;;;;;;5076402;28;20397;-85
2021/07/09 00:28:34;;;;;;;2.20;1.50;;;;;;;;;;5075556;28;20456;-85
2021/07/09 00:31:01;;;;;;;1.87;1.30;;;;;;;;;;5077066;28;20393;-85
2021/07/09 00:33:27;;;;;;;2.17;1.43;;;;;;;;;;5075523;28;20424;-84
2021/07/09 00:35:53;;;;;;;3.80;1.40;;;;;;;;;;5077074;28;20393;-85
2021/07/09 00:38:19;;;;;;;2.77;1.40;;;;;;;;;;5078410;28;20446;-85
2021/07/09 00:40:45;;;;;;;2.83;1.50;;;;;;;;;;5075967;28;20826;-85
2021/07/09 00:43:11;;;;;;;1.83;1.20;;;;;;;;;;5076385;28;20425;-85
2021/07/09 00:45:37;;;;;;;1.70;1.10;;;;;;;;;;5077654;28;20405;-83
2021/07/09 00:48:04;;;;;;;2.47;1.50;;;;;;;;;;5076201;28;20471;-85
2021/07/09 00:50:30;;;;;;;1.60;1.10;;;;;;;;;;5077577;28;20923;-85
2021/07/09 00:52:56;;;;;;;1.60;1.10;;;;;;;;;;5076444;28;20425;-85
2021/07/09 00:55:22;;;;;;;1.93;1.30;;;;;;;;;;5077739;28;20405;-85
2021/07/09 00:57:49;;;;;;;2.10;1.30;;;;;;;;;;5082574;28;20428;-85
2021/07/09 01:00:17;;;;;;;1.90;1.37;;;;;;;;;;5096807;28;20427;-85
2021/07/09 01:02:43;;;;;;;1.97;1.70;;;;;;;;;;5087747;28;20432;-85
2021/07/09 01:05:10;;;;;;;1.90;1.17;;;;;;;;;;5077077;28;20406;-85
2021/07/09 01:07:37;;;;;;;1.93;1.40;;;;;;;;;;5076632;28;20815;-85
2021/07/09 01:10:10;;;;;;;2.17;1.30;;;;;;;;;;5075495;28;20424;-85
2021/07/09 01:12:37;;;;;;;1.80;1.20;;;;;;;;;;5062639;28;20431;-82
2021/07/09 01:15:04;;;;;;;1.90;1.20;;;;;;;;;;5076330;28;20416;-82
2021/07/09 01:17:30;;;;;;;2.30;1.40;;;;;;;;;;5076731;28;20496;-82
2021/07/09 01:19:56;;;;;;;1.70;1.30;;;;;;;;;;5093194;28;20453;-81
2021/07/09 01:22:24;;;;;;;4.03;1.60;;;;;;;;;;5088562;28;20433;-82
2021/07/09 01:24:50;;;;;;;2.10;1.43;;;;;;;;;;5073354;28;20428;-81
2021/07/09 01:27:17;;;;;;;2.27;1.43;;;;;;;;;;5065878;28;20456;-84
2021/07/09 01:29:43;;;;;;;1.50;1.07;;;;;;;;;;5073728;28;21027;-84
2021/07/09 01:32:09;;;;;;;1.80;1.30;;;;;;;;;;5059586;28;20467;-80
2021/07/09 01:34:35;;;;;;;2.20;1.47;;;;;;;;;;5081664;28;20423;-84
2021/07/09 01:37:14;;;;;;;2.30;1.17;;;;;;;;;;5102629;28;20388;-81
2021/07/09 01:39:40;;;;;;;3.77;1.60;;;;;;;;;;5083119;28;20447;-84
2021/07/09 01:42:06;;;;;;;1.83;1.33;;;;;;;;;;5079687;28;20451;-81
2021/07/09 01:44:32;;;;;;;1.83;1.27;;;;;;;;;;5061252;28;20430;-84
2021/07/09 01:46:59;;;;;;;1.83;1.37;;;;;;;;;;5067786;28;21006;-84
2021/07/09 01:49:25;;;;;;;1.80;1.23;;;;;;;;;;5061588;28;20466;-84
2021/07/09 01:51:52;;;;;;;2.70;1.40;;;;;;;;;;5057654;28;20406;-84
2021/07/09 01:54:18;;;;;;;2.00;1.37;;;;;;;;;;5086218;28;20445;-84
2021/07/09 01:56:45;;;;;;;1.63;1.23;;;;;;;;;;5102365;28;20396;-84
2021/07/09 01:59:10;;;;;;;2.00;1.30;;;;;;;;;;5086847;28;20459;-86
2021/07/09 02:01:37;;;;;;;1.80;1.20;;;;;;;;;;5081163;28;20433;-84
2021/07/09 02:04:03;;;;;;;1.80;1.30;;;;;;;;;;5080203;28;20488;-85
2021/07/09 02:06:29;;;;;;;1.83;1.03;;;;;;;;;;5080617;28;21052;-84
2021/07/09 02:08:55;;;;;;;1.70;1.23;;;;;;;;;;5079915;28;20976;-84
2021/07/09 02:11:21;;;;;;;3.47;1.50;;;;;;;;;;5081187;28;20468;-84
2021/07/09 02:13:47;;;;;;;1.67;1.23;;;;;;;;;;5079595;28;20474;-84
2021/07/09 02:16:13;;;;;;;3.30;1.40;;;;;;;;;;5080482;28;20408;-84
2021/07/09 02:18:39;;;;;;;1.63;1.20;;;;;;;;;;5087338;28;20448;-84
2021/07/09 02:21:05;;;;;;;3.60;1.20;;;;;;;;;;5100518;28;20400;-84
2021/07/09 02:23:31;;;;;;;1.60;1.03;;;;;;;;;;5098025;28;20438;-84
2021/07/09 02:25:57;;;;;;;1.77;0.93;;;;;;;;;;5100084;28;20468;-84
2021/07/09 02:28:23;;;;;;;1.60;1.10;;;;;;;;;;5093111;28;21015;-85
2021/07/09 02:30:49;;;;;;;1.40;0.93;;;;;;;;;;5079927;28;20409;-84
2021/07/09 02:33:15;;;;;;;2.33;1.10;;;;;;;;;;5079504;28;20432;-84
2021/07/09 02:35:41;;;;;;;1.33;0.90;;;;;;;;;;5079993;28;20397;-84
2021/07/09 02:38:08;;;;;;;2.07;1.00;;;;;;;;;;5078884;28;20810;-84
2021/07/09 02:40:34;;;;;;;2.33;0.93;;;;;;;;;;5080281;28;20437;-84
2021/07/09 02:43:01;;;;;;;1.67;1.23;;;;;;;;;;5078899;28;20396;-84
2021/07/09 02:45:28;;;;;;;1.90;0.80;;;;;;;;;;5079632;28;20405;-84
2021/07/09 02:47:54;;;;;;;1.77;1.00;;;;;;;;;;5078871;28;20956;-84
2021/07/09 02:50:21;;;;;;;1.50;0.93;;;;;;;;;;5058032;28;20398;-84
2021/07/09 02:52:47;;;;;;;1.40;0.70;;;;;;;;;;5058004;28;20833;-84
2021/07/09 02:55:15;;;;;;;1.43;0.93;;;;;;;;;;5097052;28;20848;-84
2021/07/09 02:57:41;;;;;;;2.43;1.00;;;;;;;;;;5097907;28;20761;-81
2021/07/09 03:00:09;;;;;;;1.30;0.70;;;;;;;;;;5081341;28;21004;-82
2021/07/09 03:02:35;;;;;;;1.30;0.70;;;;;;;;;;5068442;28;20776;-83
2021/07/09 03:05:01;;;;;;;1.30;0.70;;;;;;;;;;5076707;28;20425;-81
2021/07/09 03:07:27;;;;;;;1.50;0.93;;;;;;;;;;5073655;28;20429;-83
2021/07/09 03:09:53;;;;;;;1.70;1.10;;;;;;;;;;5086414;28;20450;-81
2021/07/09 03:12:19;;;;;;;1.43;0.80;;;;;;;;;;5093516;28;20870;-82
2021/07/09 03:14:45;;;;;;;1.90;0.73;;;;;;;;;;5081464;28;20490;-84
2021/07/09 03:17:11;;;;;;;3.37;1.03;;;;;;;;;;5077767;28;20815;-84
2021/07/09 03:19:37;;;;;;;1.40;0.83;;;;;;;;;;5090559;28;20454;-81
2021/07/09 03:22:04;;;;;;;2.50;0.80;;;;;;;;;;5098069;28;20767;-83
2021/07/09 03:24:30;;;;;;;1.40;0.87;;;;;;;;;;5084435;28;20425;-84
2021/07/09 03:26:56;;;;;;;1.30;0.73;;;;;;;;;;5078242;28;20399;-83
2021/07/09 03:29:22;;;;;;;4.57;1.47;;;;;;;;;;5072790;28;20473;-82
2021/07/09 03:31:48;;;;;;;1.47;0.80;;;;;;;;;;5057959;28;20402;-84
2021/07/09 03:34:14;;;;;;;1.50;0.87;;;;;;;;;;5059324;28;20453;-83
2021/07/09 03:36:43;;;;;;;1.40;0.90;;;;;;;;;;5057400;28;20410;-81
2021/07/09 03:39:11;;;;;;;1.30;0.80;;;;;;;;;;5065100;28;20449;-81
2021/07/09 03:41:37;;;;;;;1.93;0.80;;;;;;;;;;5080178;28;20845;-84
2021/07/09 03:44:03;;;;;;;1.70;0.80;;;;;;;;;;5089211;28;20799;-84
2021/07/09 03:46:29;;;;;;;1.60;0.77;;;;;;;;;;5078792;28;20474;-84
2021/07/09 03:48:55;;;;;;;1.40;0.80;;;;;;;;;;5078966;28;20468;-82
2021/07/09 03:51:21;;;;;;;1.30;0.80;;;;;;;;;;5079709;28;20429;-85
2021/07/09 03:53:47;;;;;;;1.30;0.90;;;;;;;;;;5078045;28;20425;-83
2021/07/09 03:56:13;;;;;;;1.50;0.70;;;;;;;;;;5088051;28;20390;-82
2021/07/09 03:58:40;;;;;;;1.30;0.70;;;;;;;;;;5089072;28;20455;-82
2021/07/09 04:01:06;;;;;;;1.40;0.80;;;;;;;;;;5091277;28;20449;-82
2021/07/09 04:03:32;;;;;;;1.40;0.80;;;;;;;;;;5086095;28;20802;-83
2021/07/09 04:05:58;;;;;;;1.43;0.80;;;;;;;;;;5079709;28;20424;-85
2021/07/09 04:08:24;;;;;;;1.30;0.73;;;;;;;;;;5075677;28;20452;-84
2021/07/09 04:10:51;;;;;;;4.83;0.97;;;;;;;;;;5077637;28;20409;-85
2021/07/09 04:13:17;;;;;;;1.30;0.80;;;;;;;;;;5077471;28;20890;-83
2021/07/09 04:15:43;;;;;;;2.17;0.80;;;;;;;;;;5097701;28;20449;-84
2021/07/09 04:18:09;;;;;;;1.57;1.07;;;;;;;;;;5080768;28;20548;-84
2021/07/09 04:20:35;;;;;;;4.70;1.17;;;;;;;;;;5096093;28;20427;-85
2021/07/09 04:23:01;;;;;;;1.40;0.80;;;;;;;;;;5100067;28;20400;-83
2021/07/09 04:25:27;;;;;;;1.50;1.00;;;;;;;;;;5078064;28;20430;-83
2021/07/09 04:27:53;;;;;;;1.43;1.00;;;;;;;;;;5076520;28;20445;-85
2021/07/09 04:30:19;;;;;;;1.50;1.00;;;;;;;;;;5075626;28;20769;-83
2021/07/09 04:32:45;;;;;;;1.40;0.90;;;;;;;;;;5076309;28;20919;-82
2021/07/09 04:35:12;;;;;;;1.90;1.10;;;;;;;;;;5075491;28;20494;-83
2021/07/09 04:37:38;;;;;;;1.40;0.80;;;;;;;;;;5076021;28;20751;-85
2021/07/09 04:40:04;;;;;;;1.47;1.07;;;;;;;;;;5073202;28;20433;-85
2021/07/09 04:42:30;;;;;;;1.90;1.30;;;;;;;;;;5076119;28;20401;-82
2021/07/09 04:44:56;;;;;;;1.70;0.73;;;;;;;;;;5066831;28;20429;-83
2021/07/09 04:47:22;;;;;;;2.07;1.20;;;;;;;;;;5090300;28;20497;-83
2021/07/09 04:49:48;;;;;;;1.70;1.10;;;;;;;;;;5095623;28;20458;-84
2021/07/09 04:52:14;;;;;;;1.90;1.17;;;;;;;;;;5096925;28;20401;-82
2021/07/09 04:54:40;;;;;;;5.30;1.17;;;;;;;;;;5090321;28;20802;-85
2021/07/09 04:57:06;;;;;;;1.90;1.33;;;;;;;;;;5075695;28;20401;-83
2021/07/09 04:59:32;;;;;;;2.27;1.00;;;;;;;;;;5077509;28;20522;-83
2021/07/09 05:01:59;;;;;;;1.50;1.00;;;;;;;;;;5094209;28;20436;-83
2021/07/09 05:04:25;;;;;;;2.13;1.17;;;;;;;;;;5090559;28;20853;-84
2021/07/09 05:06:51;;;;;;;1.80;1.20;;;;;;;;;;5076733;28;20539;-84
2021/07/09 05:09:18;;;;;;;2.27;1.00;;;;;;;;;;5096356;28;20474;-84
2021/07/09 05:11:44;;;;;;;1.50;1.07;;;;;;;;;;5078740;28;20405;-85
2021/07/09 05:14:12;;;;;;;1.70;1.20;;;;;;;;;;5074796;28;20799;-82
2021/07/09 05:16:38;;;;;;;1.90;1.20;;;;;;;;;;5097194;28;20404;-83
2021/07/09 05:19:04;;;;;;;2.60;1.50;;;;;;;;;;5096930;28;20420;-85
2021/07/09 05:21:31;;;;;;;1.77;1.30;;;;;;;;;;5086509;28;20461;-85
2021/07/09 05:23:59;;;;;;;1.60;1.17;;;;;;;;;;5095290;28;20400;-82
2021/07/09 05:26:25;;;;;;;1.90;1.50;;;;;;;;;;5070565;28;20886;-82
2021/07/09 05:28:51;;;;;;;2.40;1.30;;;;;;;;;;5055127;28;20503;-82
2021/07/09 05:31:17;;;;;;;2.17;1.20;;;;;;;;;;5090796;28;20423;-82
2021/07/09 05:33:43;;;;;;;2.23;1.20;;;;;;;;;;5097144;28;20833;-83
2021/07/09 05:36:10;;;;;;;1.53;1.00;;;;;;;;;;5081164;28;20761;-83
2021/07/09 05:38:36;;;;;;;1.93;1.20;;;;;;;;;;5078035;28;20421;-83
2021/07/09 05:41:02;;;;;;;1.80;1.03;;;;;;;;;;5064087;28;20429;-82
2021/07/09 05:43:28;;;;;;;2.13;0.90;;;;;;;;;;5074023;28;20963;-85
2021/07/09 05:45:54;;;;;;;1.63;1.13;;;;;;;;;;5071084;28;20475;-83
2021/07/09 05:51:03;;;;;;;2.20;0.90;;;;;;;;;;5053076;28;20549;-68
2021/07/09 05:53:30;;;;;;;1.40;0.80;;;;;;;;;;5057243;28;20417;-68
2021/07/09 05:55:57;;;;;;;1.90;1.10;;;;;;;;;;5055350;28;20442;-68
2021/07/09 05:58:23;;;;;;;2.10;1.30;;;;;;;;;;5057399;28;20512;-69
2021/07/09 06:00:49;;;;;;;1.70;1.13;;;;;;;;;;5044768;28;20437;-68
2021/07/09 06:03:15;;;;;;;2.07;1.27;;;;;;;;;;5037539;28;20763;-69
2021/07/09 06:05:41;;;;;;;2.23;1.03;;;;;;;;;;5036073;28;20459;-69
2021/07/09 06:08:07;;;;;;;1.80;1.00;;;;;;;;;;5035950;28;20450;-69
2021/07/09 06:10:34;;;;;;;1.40;0.87;;;;;;;;;;5036275;28;20426;-69
2021/07/09 06:13:00;;;;;;;1.77;1.00;;;;;;;;;;5036613;28;20473;-69
2021/07/09 06:15:27;;;;;;;1.50;0.80;;;;;;;;;;5057284;28;20501;-69
2021/07/09 06:17:53;;;;;;;1.50;0.90;;;;;;;;;;5035899;28;20909;-69
2021/07/09 06:20:19;;;;;;;1.60;1.30;;;;;;;;;;5048327;28;20827;-68
2021/07/09 06:22:46;;;;;;;1.50;0.90;;;;;;;;;;5075726;28;20486;-67
2021/07/09 06:25:12;;;;;;;2.93;1.97;;;;;;;;;;5073533;28;20455;-68
2021/07/09 06:27:38;;;;;;;1.47;0.90;;;;;;;;;;5075397;28;20456;-67
2021/07/09 06:30:05;;;;;;;1.50;1.03;;;;;;;;;;5073631;28;20973;-67
2021/07/09 06:32:31;;;;;;;1.70;0.97;;;;;;;;;;5075388;28;20408;-68
2021/07/09 06:34:57;;;;;;;1.73;1.20;;;;;;;;;;5073506;28;20449;-68
2021/07/09 06:37:24;;;;;;;1.50;1.00;;;;;;;;;;5075739;28;20401;-67
2021/07/09 06:39:50;;;;;;;1.60;0.90;;;;;;;;;;5074151;28;20481;-67
2021/07/09 06:42:16;;;;;;;1.60;1.03;;;;;;;;;;5075374;28;20397;-67
2021/07/09 06:44:42;;;;;;;1.90;1.40;;;;;;;;;;5073893;28;20408;-67
2021/07/09 06:47:08;;;;;;;1.47;0.90;;;;;;;;;;5073491;28;20421;-67
2021/07/09 06:49:34;;;;;;;1.60;1.10;;;;;;;;;;5075413;28;20491;-67
2021/07/09 06:52:00;;;;;;;1.60;1.00;;;;;;;;;;5073897;28;20421;-67
2021/07/09 06:54:26;;;;;;;1.70;1.23;;;;;;;;;;5074372;28;20401;-68
2021/07/09 06:56:52;;;;;;;3.00;1.20;;;;;;;;;;5051405;28;20546;-68
2021/07/09 06:59:18;;;;;;;2.00;1.30;;;;;;;;;;5041528;28;20418;-68
2021/07/09 07:01:45;;;;;;;2.17;1.50;;;;;;;;;;5027828;28;20431;-68
2021/07/09 07:04:12;;;;;;;3.37;1.10;;;;;;;;;;5036654;28;20441;-68
2021/07/09 07:06:39;;;;;;;1.97;1.13;;;;;;;;;;5049674;28;20438;-68
2021/07/09 07:09:05;;;;;;;1.93;1.23;;;;;;;;;;5047959;28;20458;-68
2021/07/09 07:11:31;;;;;;;2.03;1.40;;;;;;;;;;5046035;28;20505;-68
2021/07/09 07:13:57;;;;;;;3.13;1.40;;;;;;;;;;5053002;28;20425;-68
2021/07/09 07:16:23;;;;;;;5.50;1.40;;;;;;;;;;5048838;28;20453;-68
2021/07/09 07:18:49;;;;;;;2.70;1.10;;;;;;;;;;5053788;28;20969;-68
2021/07/09 07:21:15;;;;;;;1.67;1.10;;;;;;;;;;5046612;28;20430;-67
2021/07/09 07:23:41;;;;;;;2.67;1.60;;;;;;;;;;5040503;28;20431;-68
2021/07/09 07:26:07;;;;;;;2.33;1.53;;;;;;;;;;5046922;28;20500;-69
2021/07/09 07:28:33;;;;;;;9.67;2.70;;;;;;;;;;5043215;28;20528;-69
2021/07/09 07:30:59;;;;;;;1.80;1.40;;;;;;;;;;5046469;28;20920;-69
2021/07/09 07:33:25;;;;;;;2.20;1.60;;;;;;;;;;5045661;28;20473;-69
2021/07/09 07:35:51;;;;;;;1.80;1.43;;;;;;;;;;5046534;28;20472;-68
2021/07/09 07:38:17;;;;;;;1.90;1.40;;;;;;;;;;5049948;28;20895;-69
2021/07/09 07:40:43;;;;;;;2.10;1.40;;;;;;;;;;5046030;28;20498;-69
2021/07/09 07:43:09;;;;;;;1.93;1.27;;;;;;;;;;5044574;28;20723;-69
2021/07/09 07:45:35;;;;;;;1.80;1.30;;;;;;;;;;5043223;28;20449;-69
2021/07/09 07:48:01;;;;;;;1.93;1.30;;;;;;;;;;5044337;28;20457;-69
2021/07/09 07:50:28;;;;;;;2.33;1.80;;;;;;;;;;5039923;28;20442;-68
2021/07/09 07:52:54;;;;;;;2.63;1.43;;;;;;;;;;5044386;28;20429;-69
2021/07/09 07:55:20;;;;;;;2.20;1.40;;;;;;;;;;5045334;28;20461;-68
2021/07/09 07:57:46;;;;;;;2.23;1.50;;;;;;;;;;5043164;28;20435;-70
2021/07/09 08:00:12;;;;;;;2.30;1.40;;;;;;;;;;5045634;28;20429;-68
2021/07/09 08:02:38;;;;;;;2.90;1.57;;;;;;;;;;5045314;28;20438;-68
2021/07/09 08:05:05;;;;;;;2.90;1.63;;;;;;;;;;5047754;28;20441;-68
2021/07/09 08:07:32;;;;;;;2.07;1.33;;;;;;;;;;5046628;28;20494;-68
2021/07/09 08:09:58;;;;;;;2.40;1.57;;;;;;;;;;5056318;28;20477;-69
2021/07/09 08:12:24;;;;;;;2.23;1.50;;;;;;;;;;5047709;28;20417;-68
2021/07/09 08:14:50;;;;;;;2.30;1.60;;;;;;;;;;5051906;28;20745;-68
2021/07/09 08:17:16;;;;;;;2.17;1.53;;;;;;;;;;5051120;28;20432;-69
2021/07/09 08:19:42;;;;;;;2.20;1.80;;;;;;;;;;5048179;28;20426;-70
2021/07/09 08:22:08;;;;;;;4.33;1.53;;;;;;;;;;5054913;28;20893;-68
2021/07/09 08:24:34;;;;;;;2.93;1.90;;;;;;;;;;5048882;28;20914;-68
2021/07/09 08:27:00;;;;;;;2.33;1.63;;;;;;;;;;5042928;28;20540;-69
2021/07/09 08:29:26;;;;;;;1.77;1.30;;;;;;;;;;5049097;28;20492;-68
2021/07/09 08:31:57;;;;;;;1.57;1.07;;;;;;;;;;5049539;28;20430;-68
2021/07/09 08:34:23;;;;;;;2.30;1.30;;;;;;;;;;5051916;28;20418;-69
2021/07/09 08:36:49;;;;;;;2.10;1.47;;;;;;;;;;5046388;28;20446;-68
2021/07/09 08:39:15;;;;;;;2.23;1.33;;;;;;;;;;5051329;28;20418;-67
2021/07/09 08:41:42;;;;;;;1.60;1.00;;;;;;;;;;5051755;28;20513;-68
2021/07/09 08:44:08;;;;;;;2.37;1.60;;;;;;;;;;5052795;28;20452;-68
2021/07/09 08:46:35;;;;;;;3.03;1.70;;;;;;;;;;5052846;28;20447;-68
2021/07/09 08:49:01;;;;;;;2.07;1.23;;;;;;;;;;5053141;28;20457;-68
2021/07/09 08:51:27;;;;;;;2.17;1.60;;;;;;;;;;5048472;28;20449;-68
2021/07/09 08:53:53;;;;;;;1.93;1.33;;;;;;;;;;5055684;28;20986;-68
2021/07/09 08:56:20;;;;;;;1.73;1.10;;;;;;;;;;5051881;28;20529;-68
2021/07/09 08:58:46;;;;;;;3.30;1.20;;;;;;;;;;5062047;28;20496;-69
2021/07/09 09:01:13;;;;;;;3.37;1.50;;;;;;;;;;5052010;28;20987;-68
2021/07/09 09:03:40;;;;;;;2.23;1.53;;;;;;;;;;5050876;28;20483;-68
2021/07/09 09:06:10;;;;;;;1.97;1.40;;;;;;;;;;5052177;28;20894;-68
2021/07/09 09:08:38;;;;;;;1.83;1.50;;;;;;;;;;5048537;28;20461;-68
2021/07/09 09:11:04;;;;;;;1.80;1.30;;;;;;;;;;5066927;28;20437;-68
2021/07/09 09:13:32;;;;;;;1.83;1.17;;;;;;;;;;5047406;28;20552;-69
2021/07/09 09:15:58;;;;;;;2.47;1.33;;;;;;;;;;5041192;28;20446;-68
2021/07/09 09:18:31;;;;;;;2.43;1.63;;;;;;;;;;5048055;28;20425;-68
2021/07/09 09:20:58;;;;;;;1.90;1.40;;;;;;;;;;5048287;28;20606;-68
2021/07/09 09:23:25;;;;;;;2.37;1.70;;;;;;;;;;5048237;28;21059;-69
2021/07/09 09:25:51;;;;;;;3.10;1.20;;;;;;;;;;5051842;28;20464;-68
2021/07/09 09:28:17;;;;;;;1.77;1.20;;;;;;;;;;5044948;28;20808;-68
2021/07/09 09:30:45;;;;;;;2.10;1.20;;;;;;;;;;5040166;28;20432;-68
2021/07/09 09:33:13;;;;;;;2.20;1.30;;;;;;;;;;5043733;28;20430;-68
2021/07/09 09:35:43;;;;;;;2.10;0.93;;;;;;;;;;5044499;28;20445;-68
2021/07/09 09:38:10;;;;;;;1.70;0.97;;;;;;;;;;5042262;28;20489;-68
2021/07/09 09:40:37;;;;;;;2.10;1.40;;;;;;;;;;5041328;28;20431;-68
2021/07/09 09:43:08;;;;;;;2.30;1.43;;;;;;;;;;5051910;28;20493;-67
2021/07/09 09:45:35;;;;;;;2.30;1.30;;;;;;;;;;5049169;28;20515;-68
2021/07/09 09:48:05;;;;;;;2.90;1.40;;;;;;;;;;5046821;28;20461;-68
2021/07/09 09:50:31;;;;;;;2.23;1.43;;;;;;;;;;5032440;28;20445;-70
2021/07/09 09:52:57;;;;;;;2.10;1.20;;;;;;;;;;5053481;28;20429;-68
2021/07/09 09:55:24;;;;;;;1.97;1.40;;;;;;;;;;5050175;28;20536;-69
2021/07/09 09:58:07;;;;;;;2.37;1.20;;;;;;;;;;5046945;28;20488;-68
2021/07/09 10:00:34;;;;;;;2.20;1.53;;;;;;;;;;5048978;28;21047;-68
2021/07/09 10:03:02;;;;;;;2.20;1.73;;;;;;;;;;5052182;28;20425;-68
2021/07/09 10:05:28;;;;;;;2.97;1.53;;;;;;;;;;5050912;28;20502;-68
2021/07/09 10:07:56;;;;;;;2.10;1.60;;;;;;;;;;5055053;28;20492;-69
2021/07/09 10:10:22;;;;;;;2.77;1.67;;;;;;;;;;5047825;28;20418;-68
2021/07/09 10:12:50;;;;;;;2.00;1.60;;;;;;;;;;5038984;28;20438;-68
2021/07/09 10:15:16;;;;;;;2.37;1.53;;;;;;;;;;5050791;28;20429;-68
2021/07/09 10:17:44;;;;;;;2.70;1.60;;;;;;;;;;5059442;28;20437;-68
2021/07/09 10:20:10;;;;;;;2.13;1.70;;;;;;;;;;5058480;28;20473;-68
2021/07/09 10:22:36;;;;;;;4.67;2.13;;;;;;;;;;5041347;28;20434;-69
2021/07/09 10:25:03;;;;;;;2.17;1.50;;;;;;;;;;5052325;28;20451;-68
2021/07/09 10:27:30;;;;;;;3.00;2.30;;;;;;;;;;5055651;28;20421;-68
2021/07/09 10:30:03;;;;;;;2.70;1.70;;;;;;;;;;5051251;28;20521;-68
2021/07/09 10:32:34;;;;;;;2.40;1.70;;;;;;;;;;5047529;28;20448;-70
2021/07/09 10:35:00;;;;;;;2.23;1.73;;;;;;;;;;5053869;28;20442;-68
2021/07/09 10:37:28;;;;;;;2.40;1.63;;;;;;;;;;5050158;28;20425;-68
2021/07/09 10:40:10;;;;;;;2.30;1.70;;;;;;;;;;5040593;28;20415;-68
2021/07/09 10:42:39;;;;;;;2.30;1.83;;;;;;;;;;5053906;28;21595;-68
2021/07/09 10:45:14;;;;;;;2.40;2.03;;;;;;;;;;5054419;28;20441;-67
2021/07/09 10:47:40;;;;;;;2.73;2.40;;;;;;;;;;5053047;28;20436;-68
2021/07/09 10:50:10;;;;;;;2.40;1.93;;;;;;;;;;5047655;28;20525;-68
2021/07/09 10:52:47;;;;;;;3.20;2.40;;;;;;;;;;5050789;28;20442;-68
2021/07/09 10:55:26;;;;;;;3.73;2.63;;;;;;;;;;5052438;28;20445;-68
2021/07/09 10:58:07;;;;;;;3.10;2.57;;;;;;;;;;5050782;28;20434;-68
2021/07/09 11:00:55;;;;;;;2.77;2.30;;;;;;;;;;5051359;28;20421;-68
2021/07/09 11:03:27;;;;;;;3.70;2.90;;;;;;;;;;5059305;28;20421;-68
2021/07/09 11:05:57;;;;;;;5.10;3.10;;;;;;;;;;5041421;28;20422;-68
2021/07/09 11:08:32;;;;;;;3.33;2.93;;;;;;;;;;5046356;28;20958;-70
2021/07/09 11:11:03;;;;;;;3.60;2.93;;;;;;;;;;5047013;28;20406;-68
2021/07/09 11:13:49;;;;;;;5.80;3.43;;;;;;;;;;5045345;28;20430;-68
2021/07/09 11:16:18;;;;;;;5.70;3.10;;;;;;;;;;5051292;28;20446;-68
2021/07/09 11:18:53;;;;;;;5.83;2.97;;;;;;;;;;5049477;28;20426;-68
2021/07/09 11:21:32;;;;;;;6.80;3.00;;;;;;;;;;5048677;28;20448;-68
2021/07/09 11:23:58;;;;;;;3.73;3.10;;;;;;;;;;5046754;28;20792;-69
2021/07/09 11:26:26;;;;;;;8.13;2.80;;;;;;;;;;5046420;28;20464;-67
2021/07/09 11:28:52;;;;;;;3.33;2.80;;;;;;;;;;5053231;28;20587;-67
2021/07/09 11:31:37;;;;;;;3.43;3.13;;;;;;;;;;5058568;28;20528;-67
2021/07/09 11:34:04;;;;;;;4.70;2.97;;;;;;;;;;5041283;28;20521;-67
2021/07/09 11:36:40;;;;;;;4.00;3.60;;;;;;;;;;5046410;28;20878;-67
2021/07/09 11:39:06;;;;;;;5.40;3.30;;;;;;;;;;5055397;28;20421;-67
2021/07/09 11:41:32;;;;;;;5.00;3.73;;;;;;;;;;5055019;28;20426;-67
2021/07/09 11:44:00;;;;;;;4.63;4.17;;;;;;;;;;5049455;28;20758;-67
2021/07/09 11:46:27;;;;;;;6.67;4.33;;;;;;;;;;5054930;28;20455;-67
2021/07/09 11:48:53;;;;;;;5.53;3.60;;;;;;;;;;5049349;28;20470;-68
2021/07/09 11:51:19;;;;;;;7.43;4.40;;;;;;;;;;5045244;28;20434;-67
2021/07/09 11:54:05;;;;;;;6.57;4.40;;;;;;;;;;5051695;28;20459;-68
2021/07/09 11:56:54;;;;;;;6.83;3.70;;;;;;;;;;5051197;28;20878;-67
2021/07/09 11:59:21;;;;;;;6.50;4.40;;;;;;;;;;5041830;28;20514;-68
2021/07/09 12:02:05;;;;;;;3.60;3.00;;;;;;;;;;5049632;28;20432;-67
2021/07/09 12:04:41;;;;;;;5.43;3.93;;;;;;;;;;5051164;28;20449;-67
2021/07/09 12:07:17;;;;;;;6.03;4.47;;;;;;;;;;5037034;28;20402;-67
2021/07/09 12:09:47;;;;;;;4.87;4.37;;;;;;;;;;5066610;28;20819;-67
2021/07/09 12:12:14;;;;;;;6.33;4.20;;;;;;;;;;5053855;28;20522;-68
2021/07/09 12:14:57;;;;;;;7.23;5.10;;;;;;;;;;5051998;28;20438;-67
2021/07/09 12:17:24;;;;;;;5.70;4.70;;;;;;;;;;5057544;28;20937;-67
2021/07/09 12:20:06;;;;;;;6.60;5.13;;;;;;;;;;5049735;28;20425;-68
2021/07/09 12:22:33;;;;;;;6.90;4.60;;;;;;;;;;5043215;28;20430;-67
2021/07/09 12:25:02;;;;;;;5.17;4.63;;;;;;;;;;5047072;28;20546;-68
2021/07/09 12:27:29;;;;;;;7.37;4.80;;;;;;;;;;5052817;28;20445;-67
2021/07/09 12:29:56;;;;;;;5.53;4.90;;;;;;;;;;5049840;28;20473;-68
2021/07/09 12:32:22;;;;;;;6.80;4.20;;;;;;;;;;5050442;28;20535;-67
2021/07/09 12:34:48;;;;;;;4.63;3.83;;;;;;;;;;5044264;28;20443;-68
2021/07/09 12:37:14;;;;;;;4.03;3.63;;;;;;;;;;5043224;28;20528;-68
2021/07/09 12:39:40;;;;;;;6.13;4.33;;;;;;;;;;5049662;28;20472;-68
2021/07/09 12:42:11;;;;;;;4.30;3.20;;;;;;;;;;5044253;28;20436;-67
2021/07/09 12:44:37;;;;;;;4.27;3.27;;;;;;;;;;5050107;28;20902;-67
2021/07/09 12:47:03;;;;;;;3.50;3.00;;;;;;;;;;5043547;28;20957;-67
2021/07/09 12:49:29;;;;;;;3.83;3.30;;;;;;;;;;5050436;28;20508;-67
2021/07/09 12:52:04;;;;;;;5.67;3.67;;;;;;;;;;5039834;28;20434;-66
2021/07/09 12:54:32;;;;;;;4.57;3.33;;;;;;;;;;5042498;28;20490;-67
2021/07/09 12:57:02;;;;;;;11.23;3.60;;;;;;;;;;5045900;28;20445;-67
2021/07/09 12:59:28;;;;;;;5.40;3.57;;;;;;;;;;5052887;28;20511;-67
2021/07/09 13:02:01;;;;;;;5.63;4.43;;;;;;;;;;5047532;28;20425;-67
2021/07/09 13:04:28;;;;;;;7.17;5.83;;;;;;;;;;5057249;28;20444;-67
2021/07/09 13:07:05;;;;;;;5.20;4.60;;;;;;;;;;5050611;28;20429;-67
2021/07/09 13:09:34;;;;;;;5.00;4.60;;;;;;;;;;5045975;28;20452;-67
2021/07/09 13:12:16;;;;;;;6.50;5.90;;;;;;;;;;5051173;28;20437;-67
2021/07/09 13:14:50;;;;;;;6.17;4.10;;;;;;;;;;5051295;28;20949;-68
2021/07/09 13:17:18;;;;;;;4.77;4.00;;;;;;;;;;5047386;28;20425;-67
2021/07/09 13:19:44;;;;;;;3.50;2.97;;;;;;;;;;5049918;28;20535;-68
2021/07/09 13:22:10;;;;;;;4.17;3.77;;;;;;;;;;5044162;28;20423;-67
2021/07/09 13:24:37;;;;;;;5.00;3.37;;;;;;;;;;5060035;28;20540;-67
2021/07/09 13:27:17;;;;;;;5.50;3.97;;;;;;;;;;5049789;28;20761;-67
2021/07/09 13:29:43;;;;;;;11.13;4.53;;;;;;;;;;5039444;28;20830;-67
2021/07/09 13:32:09;;;;;;;6.20;3.50;;;;;;;;;;5051713;28;20490;-67
2021/07/09 13:34:35;;;;;;;3.50;3.00;;;;;;;;;;5046289;28;21001;-67
2021/07/09 13:37:01;;;;;;;3.57;2.60;;;;;;;;;;5038406;28;20437;-67
2021/07/09 13:39:27;;;;;;;2.60;2.40;;;;;;;;;;5051956;28;20921;-67
2021/07/09 13:41:53;;;;;;;3.97;2.33;;;;;;;;;;5049173;28;20998;-67
2021/07/09 13:44:19;;;;;;;2.93;2.23;;;;;;;;;;5051480;28;20425;-69
2021/07/09 13:46:46;;;;;;;4.60;2.47;;;;;;;;;;5051843;28;20433;-69
2021/07/09 13:49:12;;;;;;;3.80;1.90;;;;;;;;;;5050714;28;20812;-69
2021/07/09 13:51:38;;;;;;;3.43;2.60;;;;;;;;;;5054389;28;20401;-68
2021/07/09 13:54:04;;;;;;;2.80;2.30;;;;;;;;;;5055218;28;20420;-66
2021/07/09 13:56:30;;;;;;;3.10;2.03;;;;;;;;;;5054991;28;20507;-66
2021/07/09 13:58:56;;;;;;;3.20;2.20;;;;;;;;;;5050006;28;20868;-68
2021/07/09 14:01:22;;;;;;;4.50;2.90;;;;;;;;;;5053287;28;20456;-66
2021/07/09 14:03:48;;;;;;;6.00;3.43;;;;;;;;;;5052030;28;20991;-67
2021/07/09 14:06:14;;;;;;;9.93;3.70;;;;;;;;;;5057049;28;20478;-66
2021/07/09 14:08:41;;;;;;;4.60;3.30;;;;;;;;;;5054406;28;20484;-67
2021/07/09 14:11:07;;;;;;;4.60;3.60;;;;;;;;;;5048952;28;20942;-67
2021/07/09 14:13:35;;;;;;;4.60;3.10;;;;;;;;;;5057668;28;20445;-67
2021/07/09 14:16:01;;;;;;;4.57;3.50;;;;;;;;;;5048899;28;20984;-67
2021/07/09 14:18:28;;;;;;;5.50;3.10;;;;;;;;;;5052309;28;20453;-67
2021/07/09 14:20:54;;;;;;;8.53;3.97;;;;;;;;;;5054603;28;20792;-67
2021/07/09 14:23:21;;;;;;;4.73;3.70;;;;;;;;;;5054187;28;20453;-67
2021/07/09 14:25:48;;;;;;;5.53;3.53;;;;;;;;;;5054374;28;20964;-67
2021/07/09 14:28:14;;;;;;;3.63;3.30;;;;;;;;;;5048315;28;20454;-67
2021/07/09 14:30:40;;;;;;;3.23;2.90;;;;;;;;;;5046933;28;20513;-67
2021/07/09 14:33:07;;;;;;;4.33;3.60;;;;;;;;;;5054320;28;20410;-67
2021/07/09 14:35:33;;;;;;;4.33;3.93;;;;;;;;;;5051787;28;20970;-68
2021/07/09 14:37:59;;;;;;;4.20;3.60;;;;;;;;;;5051406;28;20438;-67
2021/07/09 14:40:26;;;;;;;4.80;4.00;;;;;;;;;;5050089;28;20556;-67
2021/07/09 14:42:53;;;;;;;4.87;4.37;;;;;;;;;;5056178;28;20430;-68
2021/07/09 14:45:19;;;;;;;5.63;3.70;;;;;;;;;;5053857;28;20456;-67
2021/07/09 14:47:45;;;;;;;4.10;3.70;;;;;;;;;;5054978;28;20414;-68